ASN logo
 
Statuts: Information verified through data from accident investigation authorities
Date:mercredi 5 janvier 2022
Heure:17:07
Type/Sous-type:Silhouette image of generic B734 model; specific model in this crash may look slightly different
Boeing 737-4H6
Compagnie:Caspian Airlines
Immatriculation: EP-CAP
Numéro de série: 26466/2372
Année de Fabrication: 1992-09-18 (29 years 4 months)
Moteurs: 2 CFMI CFM56-3C1
Equipage:victimes: 0 / à bord: 9
Passagers:victimes: 0 / à bord: 117
Total:victimes: 0 / à bord: 126
Dégats de l'appareil: Substantiels
Lieu de l'accident:Isfahan-Shahid Beheshti Airport (IFN) (   Iran)
Phase de vol: A l'atterrissage (LDG)
Nature:Transport de Passagers Nat.
Aéroport de départ:Mashhad Airport (MHD/OIMM), Iran
Aéroport de destination:Isfahan-Shahid Beheshti Airport (IFN/OIFM), Iran
Numéro de vol:RV6904
Détails:
Caspian Airlines flight 6904, a Boeing 737-4H6, sustained substantial damage when the left-hand main gear collapsed during landing on runway 25 at Isfahan-Shahid Beheshti Airport (IFN/OIFM), Iran. Five passengers were injured as a result of the evacuation.
The aircraft landed following a visual approach to runway 25. After touchdown, abnormal vibration was felt, followed by the collapse of the left-hand main gear. The aircraft veered right and came to a stop on the side of the runway.

Accident investigation:
Investigating agency: AAIB Iran
Status: Investigation ongoing
Accident number: A14001015EPCAP
Download report: Preliminary report
Language: 

METAR Weather report:
UTC / local time:
OIFM 051330Z 32010KT 9999 SCT040 06/M06 Q1016 A3001=

UTC / local time:
OIFM 051400Z 32010KT 9999 SCT040 06/M06 Q1016 A3002=


Photos

Add your photo of this accident or aircraft

Video, social media

Plan
Ce plan montre l'aéroport de départ ainsi que la supposée destination du vol. La ligne fixe reliant les deux aéroports n'est pas le plan de vol exact.
La distance entre Mashhad Airport et Isfahan-Shahid Beheshti Airport est de 806 km (504 miles).

Les informations ci-dessus ne représentent pas l'opinion de la 'Flight Safety Foundation' ou de 'Aviation Safety Network' sur les causes de l'accident. Ces informations prélimimaires sont basées sur les faits tel qu'ils sont connus à ce jour.
languages: languages

Share

The Aviation Safety Network is an exclusive service provided by:
Quick Links:

CONNECT WITH US: FSF Facebook FSF Twitter FSF Youtube FSF LinkedIn FSF Instagram

©2022 Flight Safety Foundation

701 N. Fairfax St., Ste. 250
Alexandria, Virginia 22314
www.FlightSafety.org